Latest Weather Observations for Esperance Airport

IDW60801

Issued at 12:42 pm WST Wednesday 19 June 2019 (issued every 10 minutes, with the page automatically refreshed every 10 minutes)

About weather observations | Map of weather stations | Latest weather observations for WA | Other Formats
Station Details ID: 009542 Name: ESPERANCE AERO Lat: -33.68 Lon: 121.83 Height: 142.0 m
Data from the previous 72 hours. | See also: Recent months at Esperance Airport
Date/Time
WST
Temp
°C
App
Temp
°C
Dew
Point
°C
Rel
Hum
%
Delta-T
°C
Wind Press
QNH
hPa
Press
MSL
hPa
Rain since
9am
mm
Dir  Spd
km/h
Gust
km/h
Spd
kts
Gust
kts
19/12:30pm 16.9 12.5 4.6 44 5.8 NW 17 24 9 13 1024.6 1024.6 0.0
19/12:00pm 16.3 12.1 4.0 44 5.7 NW 15 20 8 11 1025.0 1025.0 0.0
19/11:30am 15.9 11.1 4.9 48 5.2 NW 19 26 10 14 1025.5 1025.5 0.0
19/11:00am 15.5 11.5 4.8 49 5.0 NW 15 20 8 11 1025.9 1025.9 0.0
19/10:30am 14.4 10.0 5.0 53 4.4 WNW 17 20 9 11 1026.3 1026.3 0.0
19/10:00am 13.5 9.4 4.6 55 4.1 NW 15 20 8 11 1026.5 1026.5 0.0
19/09:30am 12.3 8.2 4.5 59 3.6 NNW 15 19 8 10 1026.6 1026.6 0.0
19/09:00am 9.8 5.6 4.0 67 2.6 N 15 19 8 10 1026.6 1026.6 0.0
19/08:30am 8.5 4.3 3.6 71 2.1 N 15 19 8 10 1026.5 1026.5 0.0
19/08:00am 6.4 2.0 2.5 76 1.6 NNW 15 19 8 10 1026.5 1026.5 0.0
19/07:30am 5.3 0.4 2.0 79 1.3 N 17 20 9 11 1026.4 1026.4 0.0
19/07:00am 4.7 -0.2 1.9 82 1.1 N 17 20 9 11 1026.2 1026.2 0.0
19/06:30am 4.9 0.4 1.9 81 1.2 N 15 19 8 10 1026.0 1026.0 0.0
19/06:00am 5.2 0.3 1.9 79 1.3 N 17 22 9 12 1025.7 1025.7 0.0
19/05:30am 5.3 0.0 2.0 79 1.3 N 19 22 10 12 1025.5 1025.5 0.0
19/05:00am 5.3 -0.2 2.1 80 1.3 N 20 24 11 13 1025.4 1025.4 0.0
19/04:30am 4.8 -0.1 2.0 82 1.1 N 17 19 9 10 1025.4 1025.4 0.0
19/04:00am 5.0 -0.3 2.0 81 1.2 N 19 22 10 12 1025.7 1025.7 0.0
19/03:30am 5.0 0.1 2.0 81 1.2 N 17 20 9 11 1025.6 1025.6 0.0
19/03:00am 4.9 0.4 2.3 83 1.0 N 15 17 8 9 1025.6 1025.6 0.0
19/02:30am 5.1 0.2 2.1 81 1.2 N 17 20 9 11 1025.5 1025.5 0.0
19/02:00am 5.2 0.3 2.2 81 1.2 N 17 20 9 11 1025.7 1025.7 0.0
19/01:30am 5.4 1.0 2.6 82 1.2 N 15 19 8 10 1025.7 1025.7 0.0
19/01:00am 5.1 0.7 2.6 84 1.0 N 15 19 8 10 1025.5 1025.5 0.0
19/12:30am 5.1 0.7 2.6 84 1.0 N 15 17 8 9 1025.6 1025.6 0.0
19/12:00am 5.5 1.1 2.8 83 1.1 N 15 17 8 9 1025.7 1025.7 0.0
 
Date/Time
WST
Temp
°C
App
Temp
°C
Dew
Point
°C
Rel
Hum
%
Delta-T
°C
Wind Press
QNH
hPa
Press
MSL
hPa
Rain since
9am
mm
Dir  Spd
km/h
Gust
km/h
Spd
kts
Gust
kts
18/11:30pm 6.4 2.4 3.0 79 1.4 N 13 15 7 8 1026.0 1026.0 0.0
18/11:00pm 7.0 3.1 3.3 77 1.6 N 13 17 7 9 1026.0 1026.0 0.0
18/10:30pm 7.0 2.7 3.4 78 1.5 N 15 17 8 9 1026.1 1026.1 0.0
18/10:00pm 6.6 2.7 3.4 80 1.3 N 13 17 7 9 1026.1 1026.1 0.0
18/09:30pm 7.4 3.9 3.6 77 1.6 N 11 13 6 7 1026.1 1026.1 0.0
18/09:00pm 8.4 5.0 3.8 73 2.0 N 11 13 6 7 1026.2 1026.2 0.0
18/08:30pm 8.9 5.6 4.5 74 2.0 NNE 11 15 6 8 1026.1 1026.1 0.0
18/08:00pm 8.8 5.7 3.6 70 2.2 NNE 9 11 5 6 1026.1 1026.1 0.0
18/07:30pm 10.2 7.2 3.9 65 2.8 NNE 9 9 5 5 1026.2 1026.2 0.0
18/07:00pm 11.1 8.1 4.1 62 3.1 NNE 9 11 5 6 1026.3 1026.3 0.0
18/06:30pm 10.7 7.8 4.8 67 2.7 NNE 9 11 5 6 1026.2 1026.2 0.0
18/06:00pm 11.2 8.3 4.4 63 3.1 NNE 9 11 5 6 1026.0 1026.0 0.0
18/05:30pm 10.7 8.5 6.1 73 2.2 N 7 9 4 5 1025.8 1025.8 0.0
18/05:00pm 11.7 9.5 5.3 65 3.0 NNW 6 7 3 4 1025.8 1025.8 0.0
18/04:30pm 12.9 10.6 4.8 58 3.8 WNW 6 7 3 4 1025.8 1025.8 0.0
18/04:00pm 13.4 10.4 4.3 54 4.2 NW 9 13 5 7 1025.9 1025.9 0.0
18/03:30pm 13.7 9.8 3.5 50 4.6 WNW 13 19 7 10 1026.0 1026.0 0.0
18/03:00pm 14.4 10.1 3.5 48 4.9 NW 15 20 8 11 1025.9 1025.9 0.0
18/02:30pm 14.0 9.8 3.8 50 4.7 WNW 15 20 8 11 1025.9 1025.9 0.0
18/02:00pm 13.7 9.4 3.5 50 4.6 WNW 15 24 8 13 1026.2 1026.2 0.0
18/01:30pm 13.5 8.5 3.6 51 4.5 WNW 19 26 10 14 1026.6 1026.6 0.0
18/01:00pm 14.0 9.4 3.8 50 4.6 WNW 17 24 9 13 1026.9 1026.9 0.0
18/12:30pm 14.0 9.5 4.3 52 4.5 NW 17 24 9 13 1027.4 1027.4 0.0
18/12:00pm 13.2 9.5 4.6 56 4.0 NW 13 22 7 12 1027.9 1027.9 0.0
18/11:30am 12.8 8.8 5.0 59 3.6 NNW 15 20 8 11 1028.5 1028.5 0.0
18/11:00am 12.9 8.9 4.8 58 3.7 NNW 15 20 8 11 1029.0 1029.1 0.0
18/10:30am 12.3 8.1 5.5 63 3.2 NNW 17 22 9 12 1029.5 1029.6 0.0
18/10:00am 12.3 8.7 4.8 60 3.4 NW 13 17 7 9 1029.7 1029.8 0.0
18/09:30am 11.5 7.8 4.3 61 3.3 NNW 13 15 7 8 1030.0 1030.1 0.0
18/09:00am 11.3 7.6 4.3 62 3.1 NNW 13 17 7 9 1029.9 1030.0 0.0
18/08:30am 11.1 6.7 4.6 64 3.0 NNW 17 20 9 11 1029.8 1029.9 0.0
18/08:00am 8.8 5.0 4.0 72 2.1 NNW 13 17 7 9 1029.7 1029.8 0.0
18/07:30am 6.5 2.6 3.3 80 1.4 N 13 15 7 8 1029.4 1029.5 0.0
18/07:00am 5.3 2.1 2.8 84 1.0 N 9 13 5 7 1029.0 1029.1 0.0
18/06:30am 5.8 2.5 2.4 79 1.4 N 9 13 5 7 1028.9 1029.0 0.0
18/06:00am 6.3 2.6 2.2 75 1.7 N 11 13 6 7 1028.9 1029.0 0.0
18/05:30am 5.4 1.3 2.4 81 1.2 NNW 13 13 7 7 1028.8 1028.8 0.0
18/05:00am 6.5 3.3 2.8 77 1.5 NNW 9 11 5 6 1028.9 1029.0 0.0
18/04:30am 6.6 2.6 2.9 77 1.6 N 13 17 7 9 1028.7 1028.7 0.0
18/04:00am 7.7 3.8 3.2 73 1.9 N 13 15 7 8 1028.7 1028.7 0.0
18/03:30am 8.6 4.8 3.8 72 2.1 N 13 15 7 8 1028.9 1029.0 0.0
18/03:00am 8.9 5.6 4.5 74 1.9 NNW 11 13 6 7 1029.2 1029.3 0.0
18/02:30am 9.4 6.1 4.6 72 2.2 NNW 11 13 6 7 1029.4 1029.5 0.0
18/02:00am 9.6 7.1 4.6 71 2.2 NNW 7 9 4 5 1029.4 1029.5 0.0
18/01:30am 9.8 6.9 4.6 70 2.3 NNW 9 11 5 6 1029.6 1029.7 0.0
18/01:00am 9.7 6.8 4.9 72 2.2 NNW 9 11 5 6 1029.5 1029.6 0.0
18/12:30am 9.7 6.8 4.9 72 2.2 NNW 9 11 5 6 1029.6 1029.7 0.0
18/12:00am 9.7 6.9 5.3 74 2.0 NW 9 11 5 6 1029.7 1029.8 0.0
 
Date/Time
WST
Temp
°C
App
Temp
°C
Dew
Point
°C
Rel
Hum
%
Delta-T
°C
Wind Press
QNH
hPa
Press
MSL
hPa
Rain since
9am
mm
Dir  Spd
km/h
Gust
km/h
Spd
kts
Gust
kts
17/11:30pm 10.0 7.7 5.6 74 2.0 NW 7 11 4 6 1029.9 1030.0 0.0
17/11:00pm 10.3 9.4 5.9 74 2.0 CALM 0 0 0 0 1030.1 1030.2 0.0
17/10:30pm 10.3 9.5 6.6 78 1.7 CALM 0 6 0 3 1030.2 1030.3 0.0
17/10:00pm 10.2 9.4 6.5 78 1.7 CALM 0 6 0 3 1030.3 1030.4 0.0
17/09:30pm 10.7 8.1 6.3 74 2.1 SW 9 11 5 6 1030.5 1030.6 0.0
17/09:00pm 10.8 8.1 5.6 70 2.4 SW 9 13 5 7 1030.5 1030.6 0.0
17/08:30pm 10.5 8.7 7.0 79 1.7 WSW 6 7 3 4 1030.4 1030.5 0.0
17/08:00pm 10.9 8.9 6.3 73 2.2 SSW 6 9 3 5 1030.3 1030.4 0.0
17/07:30pm 11.2 10.5 6.9 75 2.1 CALM 0 0 0 0 1030.2 1030.3 0.0
17/07:00pm 11.2 9.9 6.1 71 2.4 SSW 2 6 1 3 1030.2 1030.3 0.0
17/06:30pm 11.2 9.3 6.9 75 2.1 SSW 6 7 3 4 1030.1 1030.2 0.0
17/06:00pm 11.3 9.5 7.0 75 2.0 SSE 6 9 3 5 1029.9 1030.0 0.0
17/05:30pm 11.4 9.6 7.3 76 2.0 SSE 6 7 3 4 1029.8 1029.9 0.0
17/05:00pm 11.9 10.0 7.4 74 2.2 S 7 9 4 5 1029.6 1029.7 0.0
17/04:30pm 12.1 10.3 7.2 72 2.4 S 6 9 3 5 1029.5 1029.6 0.0
17/04:00pm 12.3 10.3 7.2 71 2.5 S 7 9 4 5 1029.2 1029.3 0.0
17/03:30pm 12.5 8.2 7.2 70 2.6 S 19 22 10 12 1029.2 1029.3 0.0
17/03:00pm 13.0 9.5 7.0 67 2.9 S 15 20 8 11 1029.1 1029.2 0.0
17/02:30pm 12.8 10.4 7.0 68 2.8 SSE 9 15 5 8 1028.9 1029.0 0.0
17/02:00pm 12.5 6.8 6.5 67 2.9 SSW 26 33 14 18 1029.0 1029.1 0.0
17/01:30pm 13.6 8.9 6.0 60 3.6 SSW 20 30 11 16 1028.7 1028.7 0.0
17/01:00pm 14.1 9.4 6.2 59 3.8 SSW 20 28 11 15 1028.9 1029.0 0.0
17/12:30pm 13.2 9.3 8.5 73 2.4 S 19 22 10 12 1029.1 1029.2 0.0
17/12:00pm 12.5 7.5 8.2 75 2.1 SSW 24 35 13 19 1029.4 1029.5 0.0
17/11:30am 14.1 9.7 7.4 64 3.3 S 20 28 11 15 1029.4 1029.5 0.0
17/11:00am 13.6 9.3 7.2 65 3.1 SSW 19 26 10 14 1029.6 1029.7 0.0
17/10:30am 12.5 8.2 7.2 70 2.6 WSW 19 24 10 13 1029.9 1030.0 0.0
17/10:00am 12.9 8.9 8.4 74 2.2 S 19 24 10 13 1029.8 1029.9 0.0
17/09:30am 13.1 9.9 8.4 73 2.4 SSW 15 32 8 17 1029.6 1029.7 0.0
17/09:00am 11.9 10.4 8.4 79 1.7 W 6 9 3 5 1029.2 1029.3 2.4
17/08:30am 11.4 8.8 7.9 79 1.7 SSE 11 17 6 9 1028.7 1028.7 2.4
17/08:00am 10.6 7.2 6.0 73 2.1 SW 13 17 7 9 1028.4 1028.4 2.4
17/07:30am 9.6 6.2 5.8 77 1.8 SSW 13 15 7 8 1028.1 1028.1 2.4
17/07:00am 8.7 4.8 5.3 79 1.5 SSW 15 17 8 9 1027.8 1027.8 2.4
17/06:30am 9.2 5.6 5.2 76 1.8 SW 13 17 7 9 1027.5 1027.5 2.4
17/06:00am 8.5 5.0 5.4 81 1.4 SSW 13 15 7 8 1027.2 1027.2 2.4
17/05:30am 9.6 5.5 6.0 78 1.7 SW 17 20 9 11 1027.0 1027.0 2.4
17/05:00am 10.8 7.4 7.7 81 1.5 SSW 15 20 8 11 1026.5 1026.5 2.2
17/04:30am 11.0 8.1 8.2 83 1.4 SSW 13 17 7 9 1026.2 1026.2 2.2
17/04:00am 11.1 7.1 8.3 83 1.4 SSW 19 24 10 13 1025.9 1025.9 2.2
17/03:30am 11.3 7.6 9.6 89 0.9 SSW 19 24 10 13 1025.6 1025.6 2.2
17/03:19am 11.3 8.2 10.2 93 0.6 SSW 17 20 9 11 1025.6 1025.6 2.2
17/03:03am 11.3 9.0 10.5 95 0.4 SSW 13 19 7 10 1025.6 1025.6 2.2
17/03:00am 11.2 8.9 10.4 95 0.4 SSW 13 17 7 9 1025.6 1025.6 2.2
17/02:30am 11.0 7.9 10.2 95 0.4 SSW 17 24 9 13 1025.4 1025.4 2.0
17/02:00am 11.3 9.9 11.0 98 0.2 SW 9 11 5 6 1025.1 1025.1 2.0
17/01:43am 11.5 9.4 11.2 98 0.2 SW 13 20 7 11 1025.0 1025.0 2.0
17/01:30am 11.4 9.7 11.2 99 0.1 WSW 11 20 6 11 1025.0 1025.0 1.8
17/01:19am 11.3 9.2 11.0 98 0.2 WSW 13 15 7 8 1024.8 1024.8 1.6
17/01:00am 11.2 8.7 10.9 98 0.2 WSW 15 17 8 9 1024.8 1024.8 1.6
17/12:46am 11.2 8.2 10.7 97 0.3 WSW 17 20 9 11 1024.6 1024.6 1.2
17/12:30am 11.4 8.5 10.9 97 0.3 WSW 17 22 9 12 1024.6 1024.6 1.2
17/12:06am 11.2 8.4 10.1 93 0.6 W 15 20 8 11 1024.5 1024.5 1.0
17/12:00am 10.8 8.3 9.6 92 0.6 W 13 19 7 10 1024.5 1024.5 1.0
 
Date/Time
WST
Temp
°C
App
Temp
°C
Dew
Point
°C
Rel
Hum
%
Delta-T
°C
Wind Press
QNH
hPa
Press
MSL
hPa
Rain since
9am
mm
Dir  Spd
km/h
Gust
km/h
Spd
kts
Gust
kts
16/11:30pm 10.3 6.8 8.6 89 0.8 WNW 17 19 9 10 1024.2 1024.2 0.6
16/11:00pm 11.0 7.7 9.4 90 0.8 W 17 22 9 12 1024.2 1024.2 0.6
16/10:30pm 11.4 7.6 9.7 89 0.9 WSW 20 24 11 13 1024.3 1024.3 0.6
16/10:27pm 11.4 7.6 9.7 89 0.9 WSW 20 24 11 13 1024.3 1024.3 0.6
16/10:10pm 11.6 7.7 8.8 83 1.4 W 19 33 10 18 1024.5 1024.5 0.4
16/10:00pm 11.4 8.1 8.1 80 1.6 WNW 15 19 8 10 1024.4 1024.4 0.0
16/09:30pm 11.7 8.4 8.0 78 1.8 WNW 15 17 8 9 1024.4 1024.4 0.0
16/09:00pm 12.1 9.3 8.6 79 1.7 WNW 13 17 7 9 1024.4 1024.4 0.0
16/08:30pm 12.6 9.6 7.9 73 2.3 NW 13 15 7 8 1024.4 1024.4 0.0
16/08:00pm 12.2 9.7 8.3 77 1.9 NW 11 13 6 7 1024.2 1024.2 0.0
16/07:30pm 11.8 8.8 7.7 76 2.0 WNW 13 15 7 8 1024.3 1024.3 0.0
16/07:00pm 12.5 9.5 7.6 72 2.4 WNW 13 15 7 8 1024.1 1024.1 0.0
16/06:30pm 13.4 10.0 7.8 69 2.8 WNW 15 19 8 10 1023.9 1023.9 0.0
16/06:00pm 13.1 10.1 7.5 69 2.7 W 13 17 7 9 1023.5 1023.6 0.0
16/05:30pm 13.2 10.1 7.4 68 2.8 WNW 13 17 7 9 1023.2 1023.3 0.0
16/05:00pm 13.7 11.0 7.5 66 3.0 WNW 11 13 6 7 1023.2 1023.3 0.0
16/04:30pm 14.6 11.5 7.4 62 3.6 W 13 17 7 9 1023.1 1023.2 0.0
16/04:00pm 15.2 11.0 7.5 60 3.8 W 19 24 10 13 1023.1 1023.2 0.0
16/03:30pm 16.2 12.1 7.9 58 4.2 WSW 19 24 10 13 1023.1 1023.2 0.0
16/03:00pm 16.0 11.1 7.0 55 4.5 W 22 32 12 17 1023.0 1023.1 0.0
16/02:30pm 16.1 10.9 7.1 55 4.5 W 24 35 13 19 1022.8 1022.8 0.0
16/02:00pm 16.5 12.2 7.7 56 4.4 W 20 26 11 14 1022.8 1022.8 0.0
16/01:30pm 16.4 11.4 7.9 57 4.3 W 24 32 13 17 1022.9 1023.0 0.0
16/01:00pm 16.6 12.5 8.8 60 4.0 W 20 28 11 15 1023.3 1023.4 0.0

Other formats

Comma delimited format used in spreadsheet applications
http://www.bom.gov.au/fwo/IDW60801/IDW60801.95638.axf

JavaScript Object Notation format (JSON) in row-major order
http://www.bom.gov.au/fwo/IDW60801/IDW60801.95638.json

Data quality

Most of these data are generated automatically and are frequently updated. Quality checks on data are not normally performed. It is possible for incorrect values to appear. Refer to information at About Latest Weather Observations and please check the disclaimer before using these data.